Urania — PAFG — position and weather

sailwx.info

Track history (hours):
 
Tides and Currents Weather Stations Pressure Air Temp Water Temp Dewpoint Dewpoint Depression Visibility Wind Speed Wind Dir Waves Ship Positions

Urania (Netherlands)

Flagship of the Royal Netherlands Naval College.

Last reported at 2017-Jul-24 18:51 UTC. Time now 2017-Jul-27 00:37 UTC.
Position N 59°06' E 019°50'.

Length 27 m; draft 2.6 m.

Type: Sailing vessel. MMSI: 245804000.

Date/timePositionNaut miles runAvg speedWind from/ knotsBaromVisibWave heightAir tempDewpointWater temp
2017-Jul-24 18:51N 59°06' E 019°50'3 7.4
2017-Jul-24 18:27N 59°07' E 019°55'5 7.3
2017-Jul-24 17:49N 59°10' E 020°03'3 7.4
2017-Jul-24 17:26N 59°11' E 020°07'4 8.0
2017-Jul-24 16:59N 59°13' E 020°14'4 7.9
2017-Jul-24 16:30N 59°15' E 020°20'4 8.1
2017-Jul-24 16:00N 59°17' E 020°27'25 8.3
2017-Jul-24 13:00N 59°33' E 021°04'4 7.6
2017-Jul-24 12:31N 59°36' E 021°09'4 7.9
2017-Jul-24 12:00N 59°38' E 021°15'3 5.1
2017-Jul-24 11:30N 59°40' E 021°18'1 1.5
2017-Jul-24 11:00N 59°40' E 021°20'1 2.9
2017-Jul-24 10:30N 59°40' E 021°17'2 3.2
2017-Jul-24 10:00N 59°39' E 021°15'0 0.6
2017-Jul-24 09:30N 59°39' E 021°14'0 0.3
2017-Jul-24 09:00N 59°39' E 021°14'2 4.0
2017-Jul-24 08:31N 59°37' E 021°12'1 1.4
2017-Jul-24 08:00N 59°38' E 021°11'1 2.7
2017-Jul-24 07:30N 59°39' E 021°10'2 5.0
2017-Jul-24 07:00N 59°37' E 021°11'3 6.3
2017-Jul-24 06:30N 59°34' E 021°14'2 4.7
2017-Jul-24 06:00N 59°32' E 021°18'1 1.9
2017-Jul-24 05:31N 59°32' E 021°16'2 4.4
2017-Jul-24 05:00N 59°32' E 021°11'3 5.4
2017-Jul-24 04:30N 59°33' E 021°06'1 2.9
2017-Jul-24 04:00N 59°34' E 021°04'3 6.1
2017-Jul-24 03:30N 59°33' E 021°09'3 5.7
2017-Jul-24 03:00N 59°32' E 021°15'2 3.9
2017-Jul-24 02:30N 59°31' E 021°18'3 5.5
2017-Jul-24 02:01N 59°32' E 021°13'3 6.0
2017-Jul-24 01:30N 59°33' E 021°08'3 5.1
2017-Jul-24 01:00N 59°34' E 021°03'3 5.6
2017-Jul-24 00:30N 59°35' E 021°08'2 3.5
2017-Jul-24 00:00N 59°36' E 021°11'2 3.9
2017-Jul-23 23:30N 59°38' E 021°13'2 4.6
2017-Jul-23 23:01N 59°39' E 021°16'2 4.4
2017-Jul-23 22:30N 59°41' E 021°18'2 3.1
2017-Jul-23 22:00N 59°43' E 021°20'2 3.2
2017-Jul-23 21:30N 59°44' E 021°20'2 4.3
2017-Jul-23 21:00N 59°46' E 021°21'2 4.7
2017-Jul-23 20:30N 59°49' E 021°20'4 7.5
2017-Jul-23 20:00N 59°51' E 021°26'3 6.7
2017-Jul-23 19:30N 59°53' E 021°31'4 7.5
2017-Jul-23 19:01N 59°55' E 021°37'4 7.1
2017-Jul-23 18:30N 59°58' E 021°41'3 6.4
2017-Jul-23 18:01N 60°01' E 021°41'3 6.0
2017-Jul-23 17:30N 60°04' E 021°41'3 6.0
2017-Jul-23 17:00N 60°07' E 021°41'4 7.3
2017-Jul-23 16:30N 60°11' E 021°42'3 5.5
2017-Jul-23 16:00N 60°13' E 021°45'3 6.3
2017-Jul-23 15:31N 60°14' E 021°51'3 6.4
2017-Jul-23 15:00N 60°16' E 021°56'3 6.1
2017-Jul-23 14:30N 60°18' E 022°01'3 5.8
2017-Jul-23 14:00N 60°20' E 022°04'3 5.4
2017-Jul-23 13:30N 60°23' E 022°06'2 4.5
2017-Jul-23 13:00N 60°25' E 022°08'2 3.0
2017-Jul-23 12:26N 60°25' E 022°11'1 3.0
2017-Jul-23 12:00N 60°26' E 022°13'1 2.0
2017-Jul-23 11:29N 60°27' E 022°15'0 0.0
2017-Jul-23 10:59N 60°27' E 022°15'0 0.0
2017-Jul-22 07:33N 60°27' E 022°15'0 0.6
2017-Jul-22 07:30N 60°26' E 022°15'0 0.0
2017-Jul-20 09:59N 60°27' E 022°15'0 0.0
2017-Jul-20 09:29N 60°27' E 022°15'0 0.9
2017-Jul-20 09:01N 60°26' E 022°14'1 2.0
2017-Jul-20 08:31N 60°26' E 022°12'3 5.1
2017-Jul-20 08:01N 60°24' E 022°08'3 5.1
2017-Jul-20 07:31N 60°22' E 022°06'3 5.0
2017-Jul-20 07:01N 60°20' E 022°04'2 4.3
2017-Jul-20 06:30N 60°18' E 022°02'2 3.8
2017-Jul-20 06:01N 60°17' E 021°59'2 4.1
2017-Jul-20 05:31N 60°15' E 021°57'2 4.4
2017-Jul-20 05:01N 60°13' E 021°54'2 2.9
2017-Jul-20 04:29N 60°12' E 021°55'0 0.0
2017-Jul-19 14:17N 60°12' E 021°55'0 0.0
2017-Jul-19 13:56N 60°12' E 021°55'0 0.1
2017-Jul-19 13:30N 60°12' E 021°55'1 2.4
2017-Jul-19 13:00N 60°12' E 021°57'3 5.7
2017-Jul-19 12:30N 60°13' E 022°02'3 5.0
2017-Jul-19 12:00N 60°13' E 022°07'3 5.0
2017-Jul-19 11:30N 60°12' E 022°11'3 5.1
2017-Jul-19 11:00N 60°11' E 022°16'2 4.5
2017-Jul-19 10:30N 60°09' E 022°17'3 5.1
2017-Jul-19 10:00N 60°06' E 022°19'3 6.3
2017-Jul-19 09:30N 60°03' E 022°22'3 6.0
2017-Jul-19 09:00N 60°00' E 022°22'3 6.0
2017-Jul-19 08:30N 59°57' E 022°23'3 5.9
2017-Jul-19 08:00N 59°55' E 022°25'2 4.9
2017-Jul-19 07:30N 59°54' E 022°29'3 6.0
2017-Jul-19 07:00N 59°55' E 022°35'3 5.8
2017-Jul-19 06:30N 59°54' E 022°41'3 6.1
2017-Jul-19 06:00N 59°53' E 022°46'3 6.1
2017-Jul-19 05:30N 59°52' E 022°51'2 4.8
2017-Jul-19 05:00N 59°49' E 022°51'2 3.6
2017-Jul-19 04:30N 59°48' E 022°54'2 3.3
2017-Jul-19 04:00N 59°49' E 022°57'0 0.0
2017-Jul-18 15:16N 59°49' E 022°57'0 0.0
2017-Jul-18 15:01N 59°49' E 022°57'0 0.0
2017-Jul-18 14:01N 59°49' E 022°57'0 0.0
2017-Jul-18 13:31N 59°49' E 022°57'0 0.0
2017-Jul-18 13:00N 59°49' E 022°57'0 0.0
2017-Jul-18 12:30N 59°49' E 022°57'1 2.1
2017-Jul-18 12:00N 59°48' E 022°57'2 4.1
2017-Jul-18 11:30N 59°47' E 022°60'3 5.8
2017-Jul-18 11:00N 59°44' E 023°03'3 6.2
2017-Jul-18 10:30N 59°42' E 023°07'1 1.2
2017-Jul-18 10:00N 59°42' E 023°08'1 1.1
2017-Jul-18 09:30N 59°41' E 023°07'2 3.4
2017-Jul-18 09:00N 59°42' E 023°10'1 2.7
2017-Jul-18 08:31N 59°42' E 023°13'2 3.3
2017-Jul-18 08:00N 59°43' E 023°14'2 4.9
2017-Jul-18 07:31N 59°46' E 023°16'3 5.5
2017-Jul-18 07:00N 59°49' E 023°17'3 5.2
2017-Jul-18 06:30N 59°51' E 023°19'1 3.0
2017-Jul-18 06:01N 59°52' E 023°21'2 3.0
2017-Jul-18 05:30N 59°52' E 023°25'1 1.5
2017-Jul-18 05:00N 59°52' E 023°23'0 0.0
2017-Jul-18 04:30N 59°52' E 023°23'0 0.0
2017-Jul-18 04:00N 59°52' E 023°23'0 0.0
2017-Jul-18 03:30N 59°52' E 023°23'0 0.0
2017-Jul-18 03:00N 59°52' E 023°23'0 0.0
2017-Jul-18 02:30N 59°52' E 023°23'0 0.0
2017-Jul-18 02:00N 59°52' E 023°23'0 0.0
2017-Jul-18 01:30N 59°52' E 023°23'0 0.0
2017-Jul-18 01:00N 59°52' E 023°23'0 0.0
2017-Jul-18 00:30N 59°52' E 023°23'0 0.0
2017-Jul-18 00:00N 59°52' E 023°23'0 0.0
2017-Jul-17 23:30N 59°52' E 023°23'0 0.0
2017-Jul-17 23:00N 59°52' E 023°23'0 0.0
2017-Jul-17 22:30N 59°52' E 023°23'0 0.0
2017-Jul-17 22:00N 59°52' E 023°23'0 0.0
2017-Jul-17 21:30N 59°52' E 023°23'0 0.0
2017-Jul-17 21:00N 59°52' E 023°23'0 0.0
2017-Jul-17 20:30N 59°52' E 023°23'0 0.0
2017-Jul-17 20:00N 59°52' E 023°23'0 0.0
2017-Jul-17 19:30N 59°52' E 023°23'0 0.0
2017-Jul-17 19:00N 59°52' E 023°23'0 0.0
2017-Jul-17 18:30N 59°52' E 023°23'0 0.0
2017-Jul-17 18:00N 59°52' E 023°23'0 0.0
2017-Jul-17 17:30N 59°52' E 023°23'0 0.0
2017-Jul-17 16:59N 59°52' E 023°23'0 0.0
2017-Jul-17 16:30N 59°52' E 023°23'0 0.0
2017-Jul-17 15:59N 59°52' E 023°23'0 0.0
2017-Jul-17 15:29N 59°52' E 023°23'0 0.0
2017-Jul-17 14:59N 59°52' E 023°23'0 0.0
2017-Jul-17 14:29N 59°52' E 023°23'0 0.0
2017-Jul-17 13:59N 59°52' E 023°23'1 2.2
2017-Jul-17 13:30N 59°51' E 023°25'2 4.6
2017-Jul-17 13:00N 59°51' E 023°30'3 5.2
2017-Jul-17 12:30N 59°52' E 023°35'3 5.6
2017-Jul-17 12:00N 59°53' E 023°39'3 5.7
2017-Jul-17 11:30N 59°55' E 023°44'3 5.8
2017-Jul-17 11:00N 59°56' E 023°49'2 5.0
2017-Jul-17 10:30N 59°58' E 023°52'2 4.5
2017-Jul-17 10:00N 59°59' E 023°56'3 5.8
2017-Jul-17 09:30N 59°59' E 024°02'3 6.1
2017-Jul-17 09:00N 59°57' E 024°07'3 5.2
2017-Jul-17 08:30N 59°55' E 024°11'2 3.9
2017-Jul-17 08:00N 59°54' E 024°12'2 4.3
2017-Jul-17 07:30N 59°52' E 024°09'1 1.9
2017-Jul-17 07:00N 59°51' E 024°09'2 5.0
2017-Jul-17 06:30N 59°50' E 024°14'3 5.6
2017-Jul-17 06:00N 59°50' E 024°20'3 5.0
2017-Jul-17 05:30N 59°51' E 024°25'2 4.9
2017-Jul-17 05:00N 59°51' E 024°29'2 4.4
2017-Jul-17 04:30N 59°51' E 024°34'2 4.4
2017-Jul-17 04:00N 59°52' E 024°38'2 4.3
2017-Jul-17 03:30N 59°53' E 024°42'2 4.5
2017-Jul-17 03:00N 59°53' E 024°46'2 4.5
2017-Jul-17 02:30N 59°54' E 024°51'2 4.2
2017-Jul-17 02:00N 59°54' E 024°55'2 4.3
2017-Jul-17 01:31N 59°55' E 024°59'2 4.6
2017-Jul-17 01:00N 59°55' E 025°04'3 5.0
2017-Jul-17 00:30N 59°56' E 025°08'2 4.7
2017-Jul-17 00:00N 59°56' E 025°13'3 5.5
2017-Jul-16 23:30N 59°55' E 025°19'3 6.5
2017-Jul-16 23:00N 59°56' E 025°25'3 6.9
2017-Jul-16 22:30N 59°57' E 025°32'3 6.4
2017-Jul-16 22:00N 59°58' E 025°38'3 6.3
2017-Jul-16 21:30N 59°58' E 025°44'3 6.9
2017-Jul-16 21:00N 59°60' E 025°50'4 8.0
2017-Jul-16 20:30N 60°02' E 025°57'3 5.3
2017-Jul-16 20:00N 60°03' E 026°01'3 5.6
2017-Jul-16 19:31N 60°05' E 026°06'3 5.0
2017-Jul-16 19:00N 60°06' E 026°10'3 5.5
2017-Jul-16 18:30N 60°08' E 026°15'3 6.4
2017-Jul-16 18:00N 60°10' E 026°20'3 6.8
2017-Jul-16 17:30N 60°13' E 026°23'3 5.8
2017-Jul-16 17:01N 60°15' E 026°27'3 5.4
2017-Jul-16 16:30N 60°17' E 026°31'3 5.4
2017-Jul-16 16:00N 60°19' E 026°35'3 6.3
2017-Jul-16 15:31N 60°21' E 026°39'2 4.9
2017-Jul-16 15:00N 60°22' E 026°43'2 4.8
2017-Jul-16 14:30N 60°23' E 026°48'3 6.2
2017-Jul-16 14:00N 60°24' E 026°54'2 4.1
2017-Jul-16 13:30N 60°26' E 026°57'2 3.6
2017-Jul-16 13:01N 60°27' E 026°58'1 1.8
2017-Jul-16 12:28N 60°28' E 026°58'1 1.3
2017-Jul-16 12:00N 60°28' E 026°57'0 0.0
2017-Jul-16 11:30N 60°28' E 026°57'0 0.0
2017-Jul-16 11:00N 60°28' E 026°57'0 0.0
2017-Jul-16 10:30N 60°28' E 026°57'0 0.0
2017-Jul-16 10:00N 60°28' E 026°57'0 0.0
2017-Jul-16 09:30N 60°28' E 026°57'0 0.0
2017-Jul-16 09:00N 60°28' E 026°57'0 0.0
2017-Jul-16 08:30N 60°28' E 026°57'0 0.0
2017-Jul-16 08:00N 60°28' E 026°57'0 0.0
2017-Jul-16 07:30N 60°28' E 026°57'0 0.0
2017-Jul-16 07:00N 60°28' E 026°57'0 0.0
2017-Jul-16 06:30N 60°28' E 026°57'0 0.0
2017-Jul-16 06:00N 60°28' E 026°57'0 0.0
2017-Jul-16 05:30N 60°28' E 026°57'0 0.0
2017-Jul-16 05:00N 60°28' E 026°57'0 0.0
2017-Jul-16 04:30N 60°28' E 026°57'  
Track history (hours):
 
Tides and Currents Weather Stations Pressure Air Temp Water Temp Dewpoint Dewpoint Depression Visibility Wind Speed Wind Dir Waves Ship Positions

Urania (Netherlands)

Flagship of the Royal Netherlands Naval College.

Last reported at 2017-Jul-24 18:51 UTC. Time now 2017-Jul-27 00:37 UTC.
Position N 59°06' E 019°50'.

Length 27 m; draft 2.6 m.

Type: Sailing vessel. MMSI: 245804000.

Date/timePositionNaut miles runAvg speedWind from/ knotsBaromVisibWave heightAir tempDewpointWater temp
2017-Jul-24 18:51N 59°06' E 019°50'3 7.4
2017-Jul-24 18:27N 59°07' E 019°55'5 7.3
2017-Jul-24 17:49N 59°10' E 020°03'3 7.4
2017-Jul-24 17:26N 59°11' E 020°07'4 8.0
2017-Jul-24 16:59N 59°13' E 020°14'4 7.9
2017-Jul-24 16:30N 59°15' E 020°20'4 8.1
2017-Jul-24 16:00N 59°17' E 020°27'25 8.3
2017-Jul-24 13:00N 59°33' E 021°04'4 7.6
2017-Jul-24 12:31N 59°36' E 021°09'4 7.9
2017-Jul-24 12:00N 59°38' E 021°15'3 5.1
2017-Jul-24 11:30N 59°40' E 021°18'1 1.5
2017-Jul-24 11:00N 59°40' E 021°20'1 2.9
2017-Jul-24 10:30N 59°40' E 021°17'2 3.2
2017-Jul-24 10:00N 59°39' E 021°15'0 0.6
2017-Jul-24 09:30N 59°39' E 021°14'0 0.3
2017-Jul-24 09:00N 59°39' E 021°14'2 4.0
2017-Jul-24 08:31N 59°37' E 021°12'1 1.4
2017-Jul-24 08:00N 59°38' E 021°11'1 2.7
2017-Jul-24 07:30N 59°39' E 021°10'2 5.0
2017-Jul-24 07:00N 59°37' E 021°11'3 6.3
2017-Jul-24 06:30N 59°34' E 021°14'2 4.7
2017-Jul-24 06:00N 59°32' E 021°18'1 1.9
2017-Jul-24 05:31N 59°32' E 021°16'2 4.4
2017-Jul-24 05:00N 59°32' E 021°11'3 5.4
2017-Jul-24 04:30N 59°33' E 021°06'1 2.9
2017-Jul-24 04:00N 59°34' E 021°04'3 6.1
2017-Jul-24 03:30N 59°33' E 021°09'3 5.7
2017-Jul-24 03:00N 59°32' E 021°15'2 3.9
2017-Jul-24 02:30N 59°31' E 021°18'3 5.5
2017-Jul-24 02:01N 59°32' E 021°13'3 6.0
2017-Jul-24 01:30N 59°33' E 021°08'3 5.1
2017-Jul-24 01:00N 59°34' E 021°03'3 5.6
2017-Jul-24 00:30N 59°35' E 021°08'2 3.5
2017-Jul-24 00:00N 59°36' E 021°11'2 3.9
2017-Jul-23 23:30N 59°38' E 021°13'2 4.6
2017-Jul-23 23:01N 59°39' E 021°16'2 4.4
2017-Jul-23 22:30N 59°41' E 021°18'2 3.1
2017-Jul-23 22:00N 59°43' E 021°20'2 3.2
2017-Jul-23 21:30N 59°44' E 021°20'2 4.3
2017-Jul-23 21:00N 59°46' E 021°21'2 4.7
2017-Jul-23 20:30N 59°49' E 021°20'4 7.5
2017-Jul-23 20:00N 59°51' E 021°26'3 6.7
2017-Jul-23 19:30N 59°53' E 021°31'4 7.5
2017-Jul-23 19:01N 59°55' E 021°37'4 7.1
2017-Jul-23 18:30N 59°58' E 021°41'3 6.4
2017-Jul-23 18:01N 60°01' E 021°41'3 6.0
2017-Jul-23 17:30N 60°04' E 021°41'3 6.0
2017-Jul-23 17:00N 60°07' E 021°41'4 7.3
2017-Jul-23 16:30N 60°11' E 021°42'3 5.5
2017-Jul-23 16:00N 60°13' E 021°45'3 6.3
2017-Jul-23 15:31N 60°14' E 021°51'3 6.4
2017-Jul-23 15:00N 60°16' E 021°56'3 6.1
2017-Jul-23 14:30N 60°18' E 022°01'3 5.8
2017-Jul-23 14:00N 60°20' E 022°04'3 5.4
2017-Jul-23 13:30N 60°23' E 022°06'2 4.5
2017-Jul-23 13:00N 60°25' E 022°08'2 3.0
2017-Jul-23 12:26N 60°25' E 022°11'1 3.0
2017-Jul-23 12:00N 60°26' E 022°13'1 2.0
2017-Jul-23 11:29N 60°27' E 022°15'0 0.0
2017-Jul-23 10:59N 60°27' E 022°15'0 0.0
2017-Jul-22 07:33N 60°27' E 022°15'0 0.6
2017-Jul-22 07:30N 60°26' E 022°15'0 0.0
2017-Jul-20 09:59N 60°27' E 022°15'0 0.0
2017-Jul-20 09:29N 60°27' E 022°15'0 0.9
2017-Jul-20 09:01N 60°26' E 022°14'1 2.0
2017-Jul-20 08:31N 60°26' E 022°12'3 5.1
2017-Jul-20 08:01N 60°24' E 022°08'3 5.1
2017-Jul-20 07:31N 60°22' E 022°06'3 5.0
2017-Jul-20 07:01N 60°20' E 022°04'2 4.3
2017-Jul-20 06:30N 60°18' E 022°02'2 3.8
2017-Jul-20 06:01N 60°17' E 021°59'2 4.1
2017-Jul-20 05:31N 60°15' E 021°57'2 4.4
2017-Jul-20 05:01N 60°13' E 021°54'2 2.9
2017-Jul-20 04:29N 60°12' E 021°55'0 0.0
2017-Jul-19 14:17N 60°12' E 021°55'0 0.0
2017-Jul-19 13:56N 60°12' E 021°55'0 0.1
2017-Jul-19 13:30N 60°12' E 021°55'1 2.4
2017-Jul-19 13:00N 60°12' E 021°57'3 5.7
2017-Jul-19 12:30N 60°13' E 022°02'3 5.0
2017-Jul-19 12:00N 60°13' E 022°07'3 5.0
2017-Jul-19 11:30N 60°12' E 022°11'3 5.1
2017-Jul-19 11:00N 60°11' E 022°16'2 4.5
2017-Jul-19 10:30N 60°09' E 022°17'3 5.1
2017-Jul-19 10:00N 60°06' E 022°19'3 6.3
2017-Jul-19 09:30N 60°03' E 022°22'3 6.0
2017-Jul-19 09:00N 60°00' E 022°22'3 6.0
2017-Jul-19 08:30N 59°57' E 022°23'3 5.9
2017-Jul-19 08:00N 59°55' E 022°25'2 4.9
2017-Jul-19 07:30N 59°54' E 022°29'3 6.0
2017-Jul-19 07:00N 59°55' E 022°35'3 5.8
2017-Jul-19 06:30N 59°54' E 022°41'3 6.1
2017-Jul-19 06:00N 59°53' E 022°46'3 6.1
2017-Jul-19 05:30N 59°52' E 022°51'2 4.8
2017-Jul-19 05:00N 59°49' E 022°51'2 3.6
2017-Jul-19 04:30N 59°48' E 022°54'2 3.3
2017-Jul-19 04:00N 59°49' E 022°57'0 0.0
2017-Jul-18 15:16N 59°49' E 022°57'0 0.0
2017-Jul-18 15:01N 59°49' E 022°57'0 0.0
2017-Jul-18 14:01N 59°49' E 022°57'0 0.0
2017-Jul-18 13:31N 59°49' E 022°57'0 0.0
2017-Jul-18 13:00N 59°49' E 022°57'0 0.0
2017-Jul-18 12:30N 59°49' E 022°57'1 2.1
2017-Jul-18 12:00N 59°48' E 022°57'2 4.1
2017-Jul-18 11:30N 59°47' E 022°60'3 5.8
2017-Jul-18 11:00N 59°44' E 023°03'3 6.2
2017-Jul-18 10:30N 59°42' E 023°07'1 1.2
2017-Jul-18 10:00N 59°42' E 023°08'1 1.1
2017-Jul-18 09:30N 59°41' E 023°07'2 3.4
2017-Jul-18 09:00N 59°42' E 023°10'1 2.7
2017-Jul-18 08:31N 59°42' E 023°13'2 3.3
2017-Jul-18 08:00N 59°43' E 023°14'2 4.9
2017-Jul-18 07:31N 59°46' E 023°16'3 5.5
2017-Jul-18 07:00N 59°49' E 023°17'3 5.2
2017-Jul-18 06:30N 59°51' E 023°19'1 3.0
2017-Jul-18 06:01N 59°52' E 023°21'2 3.0
2017-Jul-18 05:30N 59°52' E 023°25'1 1.5
2017-Jul-18 05:00N 59°52' E 023°23'0 0.0
2017-Jul-18 04:30N 59°52' E 023°23'0 0.0
2017-Jul-18 04:00N 59°52' E 023°23'0 0.0
2017-Jul-18 03:30N 59°52' E 023°23'0 0.0
2017-Jul-18 03:00N 59°52' E 023°23'0 0.0
2017-Jul-18 02:30N 59°52' E 023°23'0 0.0
2017-Jul-18 02:00N 59°52' E 023°23'0 0.0
2017-Jul-18 01:30N 59°52' E 023°23'0 0.0
2017-Jul-18 01:00N 59°52' E 023°23'0 0.0
2017-Jul-18 00:30N 59°52' E 023°23'0 0.0
2017-Jul-18 00:00N 59°52' E 023°23'0 0.0
2017-Jul-17 23:30N 59°52' E 023°23'0 0.0
2017-Jul-17 23:00N 59°52' E 023°23'0 0.0
2017-Jul-17 22:30N 59°52' E 023°23'0 0.0
2017-Jul-17 22:00N 59°52' E 023°23'0 0.0
2017-Jul-17 21:30N 59°52' E 023°23'0 0.0
2017-Jul-17 21:00N 59°52' E 023°23'0 0.0
2017-Jul-17 20:30N 59°52' E 023°23'0 0.0
2017-Jul-17 20:00N 59°52' E 023°23'0 0.0
2017-Jul-17 19:30N 59°52' E 023°23'0 0.0
2017-Jul-17 19:00N 59°52' E 023°23'0 0.0
2017-Jul-17 18:30N 59°52' E 023°23'0 0.0
2017-Jul-17 18:00N 59°52' E 023°23'0 0.0
2017-Jul-17 17:30N 59°52' E 023°23'0 0.0
2017-Jul-17 16:59N 59°52' E 023°23'0 0.0
2017-Jul-17 16:30N 59°52' E 023°23'0 0.0
2017-Jul-17 15:59N 59°52' E 023°23'0 0.0
2017-Jul-17 15:29N 59°52' E 023°23'0 0.0
2017-Jul-17 14:59N 59°52' E 023°23'0 0.0
2017-Jul-17 14:29N 59°52' E 023°23'0 0.0
2017-Jul-17 13:59N 59°52' E 023°23'1 2.2
2017-Jul-17 13:30N 59°51' E 023°25'2 4.6
2017-Jul-17 13:00N 59°51' E 023°30'3 5.2
2017-Jul-17 12:30N 59°52' E 023°35'3 5.6
2017-Jul-17 12:00N 59°53' E 023°39'3 5.7
2017-Jul-17 11:30N 59°55' E 023°44'3 5.8
2017-Jul-17 11:00N 59°56' E 023°49'2 5.0
2017-Jul-17 10:30N 59°58' E 023°52'2 4.5
2017-Jul-17 10:00N 59°59' E 023°56'3 5.8
2017-Jul-17 09:30N 59°59' E 024°02'3 6.1
2017-Jul-17 09:00N 59°57' E 024°07'3 5.2
2017-Jul-17 08:30N 59°55' E 024°11'2 3.9
2017-Jul-17 08:00N 59°54' E 024°12'2 4.3
2017-Jul-17 07:30N 59°52' E 024°09'1 1.9
2017-Jul-17 07:00N 59°51' E 024°09'2 5.0
2017-Jul-17 06:30N 59°50' E 024°14'3 5.6
2017-Jul-17 06:00N 59°50' E 024°20'3 5.0
2017-Jul-17 05:30N 59°51' E 024°25'2 4.9
2017-Jul-17 05:00N 59°51' E 024°29'2 4.4
2017-Jul-17 04:30N 59°51' E 024°34'2 4.4
2017-Jul-17 04:00N 59°52' E 024°38'2 4.3
2017-Jul-17 03:30N 59°53' E 024°42'2 4.5
2017-Jul-17 03:00N 59°53' E 024°46'2 4.5
2017-Jul-17 02:30N 59°54' E 024°51'2 4.2
2017-Jul-17 02:00N 59°54' E 024°55'2 4.3
2017-Jul-17 01:31N 59°55' E 024°59'2 4.6
2017-Jul-17 01:00N 59°55' E 025°04'3 5.0
2017-Jul-17 00:30N 59°56' E 025°08'2 4.7
2017-Jul-17 00:00N 59°56' E 025°13'3 5.5
2017-Jul-16 23:30N 59°55' E 025°19'3 6.5
2017-Jul-16 23:00N 59°56' E 025°25'3 6.9
2017-Jul-16 22:30N 59°57' E 025°32'3 6.4
2017-Jul-16 22:00N 59°58' E 025°38'3 6.3
2017-Jul-16 21:30N 59°58' E 025°44'3 6.9
2017-Jul-16 21:00N 59°60' E 025°50'4 8.0
2017-Jul-16 20:30N 60°02' E 025°57'3 5.3
2017-Jul-16 20:00N 60°03' E 026°01'3 5.6
2017-Jul-16 19:31N 60°05' E 026°06'3 5.0
2017-Jul-16 19:00N 60°06' E 026°10'3 5.5
2017-Jul-16 18:30N 60°08' E 026°15'3 6.4
2017-Jul-16 18:00N 60°10' E 026°20'3 6.8
2017-Jul-16 17:30N 60°13' E 026°23'3 5.8
2017-Jul-16 17:01N 60°15' E 026°27'3 5.4
2017-Jul-16 16:30N 60°17' E 026°31'3 5.4
2017-Jul-16 16:00N 60°19' E 026°35'3 6.3
2017-Jul-16 15:31N 60°21' E 026°39'2 4.9
2017-Jul-16 15:00N 60°22' E 026°43'2 4.8
2017-Jul-16 14:30N 60°23' E 026°48'3 6.2
2017-Jul-16 14:00N 60°24' E 026°54'2 4.1
2017-Jul-16 13:30N 60°26' E 026°57'2 3.6
2017-Jul-16 13:01N 60°27' E 026°58'1 1.8
2017-Jul-16 12:28N 60°28' E 026°58'1 1.3
2017-Jul-16 12:00N 60°28' E 026°57'0 0.0
2017-Jul-16 11:30N 60°28' E 026°57'0 0.0
2017-Jul-16 11:00N 60°28' E 026°57'0 0.0
2017-Jul-16 10:30N 60°28' E 026°57'0 0.0
2017-Jul-16 10:00N 60°28' E 026°57'0 0.0
2017-Jul-16 09:30N 60°28' E 026°57'0 0.0
2017-Jul-16 09:00N 60°28' E 026°57'0 0.0
2017-Jul-16 08:30N 60°28' E 026°57'0 0.0
2017-Jul-16 08:00N 60°28' E 026°57'0 0.0
2017-Jul-16 07:30N 60°28' E 026°57'0 0.0
2017-Jul-16 07:00N 60°28' E 026°57'0 0.0
2017-Jul-16 06:30N 60°28' E 026°57'0 0.0
2017-Jul-16 06:00N 60°28' E 026°57'0 0.0
2017-Jul-16 05:30N 60°28' E 026°57'0 0.0
2017-Jul-16 05:00N 60°28' E 026°57'0 0.0
2017-Jul-16 04:30N 60°28' E 026°57'  

Dump ship's entire track history